sensor_id;sensor_type;location;lat;lon;timestamp;P1;durP1;ratioP1;P2;durP2;ratioP2
71475;SDS011;59286;59.274;17.974;2023-02-28T00:00:30;0.85;;;0.70;;
71475;SDS011;59286;59.274;17.974;2023-02-28T00:02:56;1.45;;;0.85;;
71475;SDS011;59286;59.274;17.974;2023-02-28T00:05:22;1.92;;;0.80;;
71475;SDS011;59286;59.274;17.974;2023-02-28T00:07:49;1.13;;;0.95;;
71475;SDS011;59286;59.274;17.974;2023-02-28T00:10:16;2.72;;;0.90;;
71475;SDS011;59286;59.274;17.974;2023-02-28T00:12:48;2.25;;;0.80;;
71475;SDS011;59286;59.274;17.974;2023-02-28T00:15:17;1.05;;;0.80;;
71475;SDS011;59286;59.274;17.974;2023-02-28T00:17:43;1.48;;;0.90;;
71475;SDS011;59286;59.274;17.974;2023-02-28T00:20:10;0.90;;;0.70;;
71475;SDS011;59286;59.274;17.974;2023-02-28T00:22:44;1.08;;;0.73;;
71475;SDS011;59286;59.274;17.974;2023-02-28T00:25:12;0.97;;;0.87;;
71475;SDS011;59286;59.274;17.974;2023-02-28T00:27:39;2.67;;;0.80;;
71475;SDS011;59286;59.274;17.974;2023-02-28T00:30:09;1.17;;;0.90;;
71475;SDS011;59286;59.274;17.974;2023-02-28T00:32:38;1.20;;;0.95;;
71475;SDS011;59286;59.274;17.974;2023-02-28T00:35:04;1.83;;;0.90;;
71475;SDS011;59286;59.274;17.974;2023-02-28T00:37:31;1.48;;;1.02;;
71475;SDS011;59286;59.274;17.974;2023-02-28T00:39:57;1.38;;;0.90;;
71475;SDS011;59286;59.274;17.974;2023-02-28T00:42:23;1.33;;;0.88;;
71475;SDS011;59286;59.274;17.974;2023-02-28T00:44:49;1.25;;;0.90;;
71475;SDS011;59286;59.274;17.974;2023-02-28T00:47:15;3.97;;;1.00;;
71475;SDS011;59286;59.274;17.974;2023-02-28T00:49:40;1.50;;;0.95;;
71475;SDS011;59286;59.274;17.974;2023-02-28T00:52:06;1.77;;;0.90;;
71475;SDS011;59286;59.274;17.974;2023-02-28T00:54:31;1.05;;;1.00;;
71475;SDS011;59286;59.274;17.974;2023-02-28T00:56:57;0.70;;;0.70;;
71475;SDS011;59286;59.274;17.974;2023-02-28T00:59:23;1.90;;;0.80;;
71475;SDS011;59286;59.274;17.974;2023-02-28T01:01:48;1.00;;;0.60;;
71475;SDS011;59286;59.274;17.974;2023-02-28T01:04:14;0.93;;;0.90;;
71475;SDS011;59286;59.274;17.974;2023-02-28T01:06:40;0.73;;;0.70;;
71475;SDS011;59286;59.274;17.974;2023-02-28T01:09:05;0.77;;;0.70;;
71475;SDS011;59286;59.274;17.974;2023-02-28T01:11:32;1.23;;;0.80;;
71475;SDS011;59286;59.274;17.974;2023-02-28T01:13:58;1.10;;;1.00;;
71475;SDS011;59286;59.274;17.974;2023-02-28T01:16:25;1.35;;;0.95;;
71475;SDS011;59286;59.274;17.974;2023-02-28T01:18:50;1.00;;;0.88;;
71475;SDS011;59286;59.274;17.974;2023-02-28T01:21:20;1.35;;;0.90;;
71475;SDS011;59286;59.274;17.974;2023-02-28T01:23:46;0.82;;;0.73;;
71475;SDS011;59286;59.274;17.974;2023-02-28T01:26:14;1.67;;;0.60;;
71475;SDS011;59286;59.274;17.974;2023-02-28T01:28:41;1.85;;;0.80;;
71475;SDS011;59286;59.274;17.974;2023-02-28T01:31:07;0.70;;;0.60;;
71475;SDS011;59286;59.274;17.974;2023-02-28T01:33:33;0.60;;;0.60;;
71475;SDS011;59286;59.274;17.974;2023-02-28T01:36:09;1.67;;;0.70;;
71475;SDS011;59286;59.274;17.974;2023-02-28T01:38:40;0.82;;;0.70;;
71475;SDS011;59286;59.274;17.974;2023-02-28T01:41:09;1.27;;;0.60;;
71475;SDS011;59286;59.274;17.974;2023-02-28T01:46:23;0.93;;;0.90;;
71475;SDS011;59286;59.274;17.974;2023-02-28T01:51:47;0.82;;;0.80;;
71475;SDS011;59286;59.274;17.974;2023-02-28T01:54:24;1.10;;;0.60;;
71475;SDS011;59286;59.274;17.974;2023-02-28T01:56:57;1.05;;;0.75;;
71475;SDS011;59286;59.274;17.974;2023-02-28T01:59:31;1.20;;;0.90;;
71475;SDS011;59286;59.274;17.974;2023-02-28T02:02:12;0.70;;;0.63;;
71475;SDS011;59286;59.274;17.974;2023-02-28T02:04:58;1.30;;;1.10;;
71475;SDS011;59286;59.274;17.974;2023-02-28T02:07:26;1.93;;;0.90;;
71475;SDS011;59286;59.274;17.974;2023-02-28T02:09:59;1.05;;;0.80;;
71475;SDS011;59286;59.274;17.974;2023-02-28T02:15:14;1.00;;;0.98;;
71475;SDS011;59286;59.274;17.974;2023-02-28T02:17:45;1.05;;;0.95;;
71475;SDS011;59286;59.274;17.974;2023-02-28T02:20:16;1.63;;;0.90;;
71475;SDS011;59286;59.274;17.974;2023-02-28T02:23:08;2.15;;;0.90;;
71475;SDS011;59286;59.274;17.974;2023-02-28T02:25:54;0.88;;;0.70;;
71475;SDS011;59286;59.274;17.974;2023-02-28T02:31:20;0.70;;;0.60;;
71475;SDS011;59286;59.274;17.974;2023-02-28T02:42:21;0.57;;;0.57;;
71475;SDS011;59286;59.274;17.974;2023-02-28T02:45:00;0.90;;;0.60;;
71475;SDS011;59286;59.274;17.974;2023-02-28T02:47:30;0.80;;;0.60;;
71475;SDS011;59286;59.274;17.974;2023-02-28T02:49:57;1.27;;;0.70;;
71475;SDS011;59286;59.274;17.974;2023-02-28T02:52:38;0.73;;;0.60;;
71475;SDS011;59286;59.274;17.974;2023-02-28T02:55:09;1.25;;;0.68;;
71475;SDS011;59286;59.274;17.974;2023-02-28T02:57:38;0.70;;;0.70;;
71475;SDS011;59286;59.274;17.974;2023-02-28T03:00:11;0.70;;;0.60;;
71475;SDS011;59286;59.274;17.974;2023-02-28T03:02:37;0.60;;;0.60;;
71475;SDS011;59286;59.274;17.974;2023-02-28T03:05:07;0.70;;;0.63;;
71475;SDS011;59286;59.274;17.974;2023-02-28T03:07:40;0.60;;;0.60;;
71475;SDS011;59286;59.274;17.974;2023-02-28T03:10:25;0.60;;;0.50;;
71475;SDS011;59286;59.274;17.974;2023-02-28T03:13:02;0.60;;;0.60;;
71475;SDS011;59286;59.274;17.974;2023-02-28T03:15:43;1.10;;;0.80;;
71475;SDS011;59286;59.274;17.974;2023-02-28T03:18:21;0.57;;;0.57;;
71475;SDS011;59286;59.274;17.974;2023-02-28T03:26:09;0.90;;;0.80;;
71475;SDS011;59286;59.274;17.974;2023-02-28T03:28:48;1.00;;;0.68;;
71475;SDS011;59286;59.274;17.974;2023-02-28T03:31:30;0.60;;;0.60;;
71475;SDS011;59286;59.274;17.974;2023-02-28T03:34:03;0.60;;;0.60;;
71475;SDS011;59286;59.274;17.974;2023-02-28T03:36:35;0.68;;;0.60;;
71475;SDS011;59286;59.274;17.974;2023-02-28T03:39:09;0.70;;;0.70;;
71475;SDS011;59286;59.274;17.974;2023-02-28T03:41:41;0.70;;;0.70;;
71475;SDS011;59286;59.274;17.974;2023-02-28T03:44:17;0.60;;;0.60;;
71475;SDS011;59286;59.274;17.974;2023-02-28T03:47:00;1.50;;;0.70;;
71475;SDS011;59286;59.274;17.974;2023-02-28T03:49:34;0.63;;;0.52;;
71475;SDS011;59286;59.274;17.974;2023-02-28T03:52:08;1.02;;;0.90;;
71475;SDS011;59286;59.274;17.974;2023-02-28T03:54:36;1.05;;;0.90;;
71475;SDS011;59286;59.274;17.974;2023-02-28T03:57:22;0.98;;;0.70;;
71475;SDS011;59286;59.274;17.974;2023-02-28T04:00:05;1.08;;;0.80;;
71475;SDS011;59286;59.274;17.974;2023-02-28T04:02:41;1.23;;;0.75;;
71475;SDS011;59286;59.274;17.974;2023-02-28T04:05:07;1.15;;;0.88;;
71475;SDS011;59286;59.274;17.974;2023-02-28T04:07:33;0.80;;;0.80;;
71475;SDS011;59286;59.274;17.974;2023-02-28T04:09:59;1.05;;;0.80;;
71475;SDS011;59286;59.274;17.974;2023-02-28T04:12:25;0.60;;;0.60;;
71475;SDS011;59286;59.274;17.974;2023-02-28T04:14:50;0.70;;;0.70;;
71475;SDS011;59286;59.274;17.974;2023-02-28T04:17:16;1.10;;;0.70;;
71475;SDS011;59286;59.274;17.974;2023-02-28T04:19:41;0.80;;;0.70;;
71475;SDS011;59286;59.274;17.974;2023-02-28T04:22:07;1.60;;;0.70;;
71475;SDS011;59286;59.274;17.974;2023-02-28T04:24:34;2.35;;;0.88;;
71475;SDS011;59286;59.274;17.974;2023-02-28T04:26:59;0.68;;;0.65;;
71475;SDS011;59286;59.274;17.974;2023-02-28T04:29:26;0.63;;;0.63;;
71475;SDS011;59286;59.274;17.974;2023-02-28T04:31:53;0.80;;;0.70;;
71475;SDS011;59286;59.274;17.974;2023-02-28T04:34:22;0.70;;;0.70;;
71475;SDS011;59286;59.274;17.974;2023-02-28T04:36:48;2.55;;;0.85;;
71475;SDS011;59286;59.274;17.974;2023-02-28T04:39:15;0.52;;;0.50;;
71475;SDS011;59286;59.274;17.974;2023-02-28T04:41:44;0.75;;;0.65;;
71475;SDS011;59286;59.274;17.974;2023-02-28T04:44:10;1.95;;;0.68;;
71475;SDS011;59286;59.274;17.974;2023-02-28T04:46:36;2.72;;;0.80;;
71475;SDS011;59286;59.274;17.974;2023-02-28T04:49:01;0.70;;;0.70;;
71475;SDS011;59286;59.274;17.974;2023-02-28T04:51:27;0.68;;;0.60;;
71475;SDS011;59286;59.274;17.974;2023-02-28T04:53:53;0.73;;;0.57;;
71475;SDS011;59286;59.274;17.974;2023-02-28T04:56:19;1.05;;;0.60;;
71475;SDS011;59286;59.274;17.974;2023-02-28T04:58:44;0.90;;;0.70;;
71475;SDS011;59286;59.274;17.974;2023-02-28T05:01:22;0.68;;;0.60;;
71475;SDS011;59286;59.274;17.974;2023-02-28T05:03:55;0.95;;;0.60;;
71475;SDS011;59286;59.274;17.974;2023-02-28T05:06:23;1.40;;;0.60;;
71475;SDS011;59286;59.274;17.974;2023-02-28T05:08:50;0.88;;;0.77;;
71475;SDS011;59286;59.274;17.974;2023-02-28T05:11:17;0.60;;;0.60;;
71475;SDS011;59286;59.274;17.974;2023-02-28T05:13:43;0.60;;;0.60;;
71475;SDS011;59286;59.274;17.974;2023-02-28T05:16:09;1.42;;;0.70;;
71475;SDS011;59286;59.274;17.974;2023-02-28T05:18:35;1.80;;;0.65;;
71475;SDS011;59286;59.274;17.974;2023-02-28T05:21:00;2.47;;;0.60;;
71475;SDS011;59286;59.274;17.974;2023-02-28T05:23:29;1.48;;;0.70;;
71475;SDS011;59286;59.274;17.974;2023-02-28T05:25:54;0.75;;;0.70;;
71475;SDS011;59286;59.274;17.974;2023-02-28T05:28:20;0.70;;;0.70;;
71475;SDS011;59286;59.274;17.974;2023-02-28T05:30:46;1.90;;;0.75;;
71475;SDS011;59286;59.274;17.974;2023-02-28T05:33:13;0.70;;;0.70;;
71475;SDS011;59286;59.274;17.974;2023-02-28T05:35:39;0.73;;;0.60;;
71475;SDS011;59286;59.274;17.974;2023-02-28T05:38:05;0.50;;;0.50;;
71475;SDS011;59286;59.274;17.974;2023-02-28T05:40:30;0.93;;;0.63;;
71475;SDS011;59286;59.274;17.974;2023-02-28T05:42:56;0.70;;;0.60;;
71475;SDS011;59286;59.274;17.974;2023-02-28T05:45:21;0.68;;;0.68;;
71475;SDS011;59286;59.274;17.974;2023-02-28T05:47:46;1.00;;;0.70;;
71475;SDS011;59286;59.274;17.974;2023-02-28T05:50:12;0.52;;;0.52;;
71475;SDS011;59286;59.274;17.974;2023-02-28T05:52:37;0.45;;;0.45;;
71475;SDS011;59286;59.274;17.974;2023-02-28T05:55:03;0.73;;;0.70;;
71475;SDS011;59286;59.274;17.974;2023-02-28T05:57:28;0.45;;;0.45;;
71475;SDS011;59286;59.274;17.974;2023-02-28T05:59:54;0.50;;;0.50;;
71475;SDS011;59286;59.274;17.974;2023-02-28T06:02:19;0.98;;;0.50;;
71475;SDS011;59286;59.274;17.974;2023-02-28T06:04:45;1.38;;;0.70;;
71475;SDS011;59286;59.274;17.974;2023-02-28T06:07:11;1.23;;;0.60;;
71475;SDS011;59286;59.274;17.974;2023-02-28T06:09:36;0.60;;;0.60;;
71475;SDS011;59286;59.274;17.974;2023-02-28T06:12:03;0.60;;;0.60;;
71475;SDS011;59286;59.274;17.974;2023-02-28T06:14:34;1.40;;;0.55;;
71475;SDS011;59286;59.274;17.974;2023-02-28T06:17:01;0.70;;;0.70;;
71475;SDS011;59286;59.274;17.974;2023-02-28T06:19:27;0.68;;;0.60;;
71475;SDS011;59286;59.274;17.974;2023-02-28T06:21:55;0.60;;;0.60;;
71475;SDS011;59286;59.274;17.974;2023-02-28T06:24:22;1.23;;;0.70;;
71475;SDS011;59286;59.274;17.974;2023-02-28T06:26:49;0.68;;;0.65;;
71475;SDS011;59286;59.274;17.974;2023-02-28T06:29:15;0.70;;;0.70;;
71475;SDS011;59286;59.274;17.974;2023-02-28T06:31:43;0.65;;;0.65;;
71475;SDS011;59286;59.274;17.974;2023-02-28T06:34:10;0.75;;;0.75;;
71475;SDS011;59286;59.274;17.974;2023-02-28T06:36:39;1.40;;;1.30;;
71475;SDS011;59286;59.274;17.974;2023-02-28T06:39:06;1.30;;;1.20;;
71475;SDS011;59286;59.274;17.974;2023-02-28T06:41:33;0.75;;;0.70;;
71475;SDS011;59286;59.274;17.974;2023-02-28T06:44:03;0.60;;;0.60;;
71475;SDS011;59286;59.274;17.974;2023-02-28T06:46:39;0.60;;;0.60;;
71475;SDS011;59286;59.274;17.974;2023-02-28T06:49:06;0.55;;;0.50;;
71475;SDS011;59286;59.274;17.974;2023-02-28T06:51:34;0.73;;;0.73;;
71475;SDS011;59286;59.274;17.974;2023-02-28T06:54:00;0.60;;;0.60;;
71475;SDS011;59286;59.274;17.974;2023-02-28T06:56:26;2.05;;;0.60;;
71475;SDS011;59286;59.274;17.974;2023-02-28T06:58:51;1.17;;;0.75;;
71475;SDS011;59286;59.274;17.974;2023-02-28T07:01:20;0.30;;;0.30;;
71475;SDS011;59286;59.274;17.974;2023-02-28T07:03:47;0.47;;;0.47;;
71475;SDS011;59286;59.274;17.974;2023-02-28T07:06:26;0.65;;;0.60;;
71475;SDS011;59286;59.274;17.974;2023-02-28T07:09:08;0.70;;;0.50;;
71475;SDS011;59286;59.274;17.974;2023-02-28T07:11:33;0.68;;;0.68;;
71475;SDS011;59286;59.274;17.974;2023-02-28T07:13:59;1.58;;;0.45;;
71475;SDS011;59286;59.274;17.974;2023-02-28T07:16:24;0.40;;;0.40;;
71475;SDS011;59286;59.274;17.974;2023-02-28T07:18:53;0.30;;;0.30;;
71475;SDS011;59286;59.274;17.974;2023-02-28T07:21:20;1.13;;;0.40;;
71475;SDS011;59286;59.274;17.974;2023-02-28T07:23:46;1.00;;;0.40;;
71475;SDS011;59286;59.274;17.974;2023-02-28T07:26:13;0.55;;;0.40;;
71475;SDS011;59286;59.274;17.974;2023-02-28T07:28:44;0.73;;;0.47;;
71475;SDS011;59286;59.274;17.974;2023-02-28T07:31:11;0.40;;;0.40;;
71475;SDS011;59286;59.274;17.974;2023-02-28T07:33:39;1.85;;;0.30;;
71475;SDS011;59286;59.274;17.974;2023-02-28T07:36:08;0.43;;;0.20;;
71475;SDS011;59286;59.274;17.974;2023-02-28T07:38:42;0.50;;;0.40;;
71475;SDS011;59286;59.274;17.974;2023-02-28T07:41:13;0.47;;;0.47;;
71475;SDS011;59286;59.274;17.974;2023-02-28T07:43:39;0.47;;;0.47;;
71475;SDS011;59286;59.274;17.974;2023-02-28T07:46:05;0.40;;;0.40;;
71475;SDS011;59286;59.274;17.974;2023-02-28T07:48:34;2.60;;;0.30;;
71475;SDS011;59286;59.274;17.974;2023-02-28T07:51:00;0.35;;;0.35;;
71475;SDS011;59286;59.274;17.974;2023-02-28T07:53:26;0.68;;;0.40;;
71475;SDS011;59286;59.274;17.974;2023-02-28T07:55:59;1.05;;;0.40;;
71475;SDS011;59286;59.274;17.974;2023-02-28T07:58:26;1.75;;;0.52;;
71475;SDS011;59286;59.274;17.974;2023-02-28T08:00:52;0.95;;;0.50;;
71475;SDS011;59286;59.274;17.974;2023-02-28T08:03:18;1.77;;;0.50;;
71475;SDS011;59286;59.274;17.974;2023-02-28T08:05:46;1.05;;;0.50;;
71475;SDS011;59286;59.274;17.974;2023-02-28T08:08:13;0.77;;;0.47;;
71475;SDS011;59286;59.274;17.974;2023-02-28T08:10:39;0.75;;;0.35;;
71475;SDS011;59286;59.274;17.974;2023-02-28T08:13:05;0.30;;;0.30;;
71475;SDS011;59286;59.274;17.974;2023-02-28T08:15:30;0.30;;;0.30;;
71475;SDS011;59286;59.274;17.974;2023-02-28T08:17:56;0.50;;;0.30;;
71475;SDS011;59286;59.274;17.974;2023-02-28T08:20:22;0.65;;;0.32;;
71475;SDS011;59286;59.274;17.974;2023-02-28T08:22:49;0.38;;;0.30;;
71475;SDS011;59286;59.274;17.974;2023-02-28T08:25:15;0.20;;;0.20;;
71475;SDS011;59286;59.274;17.974;2023-02-28T08:27:41;0.40;;;0.30;;
71475;SDS011;59286;59.274;17.974;2023-02-28T08:30:06;0.47;;;0.30;;
71475;SDS011;59286;59.274;17.974;2023-02-28T08:32:35;1.25;;;0.30;;
71475;SDS011;59286;59.274;17.974;2023-02-28T08:35:00;2.47;;;0.30;;
71475;SDS011;59286;59.274;17.974;2023-02-28T08:37:27;1.85;;;0.60;;
71475;SDS011;59286;59.274;17.974;2023-02-28T08:39:56;0.63;;;0.30;;
71475;SDS011;59286;59.274;17.974;2023-02-28T08:42:24;0.98;;;0.30;;
71475;SDS011;59286;59.274;17.974;2023-02-28T08:44:49;0.98;;;0.28;;
71475;SDS011;59286;59.274;17.974;2023-02-28T08:47:15;0.47;;;0.38;;
71475;SDS011;59286;59.274;17.974;2023-02-28T08:49:48;0.40;;;0.22;;
71475;SDS011;59286;59.274;17.974;2023-02-28T08:52:15;3.20;;;0.40;;
71475;SDS011;59286;59.274;17.974;2023-02-28T08:54:43;0.85;;;0.30;;
71475;SDS011;59286;59.274;17.974;2023-02-28T08:57:08;1.63;;;0.40;;
71475;SDS011;59286;59.274;17.974;2023-02-28T08:59:34;1.25;;;0.30;;
71475;SDS011;59286;59.274;17.974;2023-02-28T09:01:59;0.40;;;0.30;;
71475;SDS011;59286;59.274;17.974;2023-02-28T09:04:25;2.35;;;0.35;;
71475;SDS011;59286;59.274;17.974;2023-02-28T09:06:50;0.52;;;0.30;;
71475;SDS011;59286;59.274;17.974;2023-02-28T09:09:16;3.20;;;0.28;;
71475;SDS011;59286;59.274;17.974;2023-02-28T09:11:42;0.93;;;0.35;;
71475;SDS011;59286;59.274;17.974;2023-02-28T09:14:07;1.52;;;0.50;;
71475;SDS011;59286;59.274;17.974;2023-02-28T09:16:33;0.47;;;0.30;;
71475;SDS011;59286;59.274;17.974;2023-02-28T09:18:59;0.60;;;0.40;;
71475;SDS011;59286;59.274;17.974;2023-02-28T09:21:25;1.23;;;0.70;;
71475;SDS011;59286;59.274;17.974;2023-02-28T09:23:50;0.93;;;0.30;;
71475;SDS011;59286;59.274;17.974;2023-02-28T09:26:18;1.67;;;0.40;;
71475;SDS011;59286;59.274;17.974;2023-02-28T09:28:45;0.40;;;0.30;;
71475;SDS011;59286;59.274;17.974;2023-02-28T09:31:12;3.20;;;0.45;;
71475;SDS011;59286;59.274;17.974;2023-02-28T09:33:39;0.45;;;0.30;;
71475;SDS011;59286;59.274;17.974;2023-02-28T09:36:04;0.17;;;0.10;;
71475;SDS011;59286;59.274;17.974;2023-02-28T09:38:30;0.20;;;0.20;;
71475;SDS011;59286;59.274;17.974;2023-02-28T09:40:58;0.70;;;0.20;;
71475;SDS011;59286;59.274;17.974;2023-02-28T09:43:26;0.40;;;0.28;;
71475;SDS011;59286;59.274;17.974;2023-02-28T09:49:19;0.47;;;0.30;;
71475;SDS011;59286;59.274;17.974;2023-02-28T09:51:58;0.77;;;0.20;;
71475;SDS011;59286;59.274;17.974;2023-02-28T09:54:28;0.50;;;0.10;;
71475;SDS011;59286;59.274;17.974;2023-02-28T09:59:36;0.10;;;0.10;;
71475;SDS011;59286;59.274;17.974;2023-02-28T10:05:16;1.08;;;0.20;;
71475;SDS011;59286;59.274;17.974;2023-02-28T10:10:40;0.40;;;0.20;;
71475;SDS011;59286;59.274;17.974;2023-02-28T10:15:49;0.60;;;0.30;;
71475;SDS011;59286;59.274;17.974;2023-02-28T10:18:27;0.93;;;0.20;;
71475;SDS011;59286;59.274;17.974;2023-02-28T10:20:55;0.20;;;0.17;;
71475;SDS011;59286;59.274;17.974;2023-02-28T10:26:00;0.40;;;0.40;;
71475;SDS011;59286;59.274;17.974;2023-02-28T10:28:35;2.30;;;0.40;;
71475;SDS011;59286;59.274;17.974;2023-02-28T10:31:05;0.68;;;0.10;;
71475;SDS011;59286;59.274;17.974;2023-02-28T10:33:34;2.65;;;0.28;;
71475;SDS011;59286;59.274;17.974;2023-02-28T10:36:01;2.38;;;0.20;;
71475;SDS011;59286;59.274;17.974;2023-02-28T10:38:31;0.63;;;0.30;;
71475;SDS011;59286;59.274;17.974;2023-02-28T10:41:06;3.28;;;0.20;;
71475;SDS011;59286;59.274;17.974;2023-02-28T10:43:37;3.50;;;0.35;;
71475;SDS011;59286;59.274;17.974;2023-02-28T10:48:37;0.40;;;0.15;;
71475;SDS011;59286;59.274;17.974;2023-02-28T10:51:13;1.50;;;0.25;;
71475;SDS011;59286;59.274;17.974;2023-02-28T10:56:20;0.50;;;0.40;;
71475;SDS011;59286;59.274;17.974;2023-02-28T11:01:45;0.95;;;0.40;;
71475;SDS011;59286;59.274;17.974;2023-02-28T11:07:06;1.35;;;0.30;;
71475;SDS011;59286;59.274;17.974;2023-02-28T11:09:44;0.30;;;0.20;;
71475;SDS011;59286;59.274;17.974;2023-02-28T11:12:20;0.30;;;0.28;;
71475;SDS011;59286;59.274;17.974;2023-02-28T11:15:34;0.40;;;0.20;;
71475;SDS011;59286;59.274;17.974;2023-02-28T11:20:38;4.20;;;0.40;;
71475;SDS011;59286;59.274;17.974;2023-02-28T11:23:10;0.52;;;0.20;;
71475;SDS011;59286;59.274;17.974;2023-02-28T11:25:39;0.90;;;0.40;;
71475;SDS011;59286;59.274;17.974;2023-02-28T11:28:05;4.13;;;0.55;;
71475;SDS011;59286;59.274;17.974;2023-02-28T11:31:00;1.88;;;0.20;;
71475;SDS011;59286;59.274;17.974;2023-02-28T11:33:50;2.13;;;0.30;;
71475;SDS011;59286;59.274;17.974;2023-02-28T11:36:27;0.73;;;0.30;;
71475;SDS011;59286;59.274;17.974;2023-02-28T11:39:04;0.57;;;0.30;;
71475;SDS011;59286;59.274;17.974;2023-02-28T11:50:35;1.58;;;0.20;;
71475;SDS011;59286;59.274;17.974;2023-02-28T11:53:39;0.25;;;0.20;;
71475;SDS011;59286;59.274;17.974;2023-02-28T11:56:10;1.33;;;0.20;;
71475;SDS011;59286;59.274;17.974;2023-02-28T11:59:02;2.20;;;0.20;;
71475;SDS011;59286;59.274;17.974;2023-02-28T12:05:08;1.52;;;0.30;;
71475;SDS011;59286;59.274;17.974;2023-02-28T12:10:24;1.00;;;0.30;;
71475;SDS011;59286;59.274;17.974;2023-02-28T12:15:27;2.20;;;0.30;;
71475;SDS011;59286;59.274;17.974;2023-02-28T12:26:44;0.40;;;0.28;;
71475;SDS011;59286;59.274;17.974;2023-02-28T12:29:26;1.50;;;0.52;;
71475;SDS011;59286;59.274;17.974;2023-02-28T12:32:04;0.20;;;0.10;;
71475;SDS011;59286;59.274;17.974;2023-02-28T12:37:34;2.15;;;0.32;;
71475;SDS011;59286;59.274;17.974;2023-02-28T12:40:28;0.65;;;0.30;;
71475;SDS011;59286;59.274;17.974;2023-02-28T12:43:12;3.50;;;0.30;;
71475;SDS011;59286;59.274;17.974;2023-02-28T12:48:28;0.73;;;0.45;;
71475;SDS011;59286;59.274;17.974;2023-02-28T12:51:00;1.85;;;0.30;;
71475;SDS011;59286;59.274;17.974;2023-02-28T12:56:08;0.63;;;0.30;;
71475;SDS011;59286;59.274;17.974;2023-02-28T12:58:43;2.78;;;0.32;;
71475;SDS011;59286;59.274;17.974;2023-02-28T13:09:56;0.30;;;0.25;;
71475;SDS011;59286;59.274;17.974;2023-02-28T13:12:26;0.57;;;0.20;;
71475;SDS011;59286;59.274;17.974;2023-02-28T13:15:00;0.77;;;0.30;;
71475;SDS011;59286;59.274;17.974;2023-02-28T13:17:56;0.70;;;0.30;;
71475;SDS011;59286;59.274;17.974;2023-02-28T13:20:47;1.60;;;0.30;;
71475;SDS011;59286;59.274;17.974;2023-02-28T13:23:36;0.30;;;0.30;;
71475;SDS011;59286;59.274;17.974;2023-02-28T13:26:16;1.20;;;0.40;;
71475;SDS011;59286;59.274;17.974;2023-02-28T13:31:13;1.55;;;0.43;;
71475;SDS011;59286;59.274;17.974;2023-02-28T13:38:41;0.90;;;0.40;;
71475;SDS011;59286;59.274;17.974;2023-02-28T14:08:58;2.47;;;0.60;;
71475;SDS011;59286;59.274;17.974;2023-02-28T14:11:34;0.75;;;0.40;;
71475;SDS011;59286;59.274;17.974;2023-02-28T14:14:02;1.00;;;0.60;;
71475;SDS011;59286;59.274;17.974;2023-02-28T14:16:43;0.75;;;0.40;;
71475;SDS011;59286;59.274;17.974;2023-02-28T14:19:14;1.75;;;0.40;;
71475;SDS011;59286;59.274;17.974;2023-02-28T14:21:50;0.82;;;0.45;;
71475;SDS011;59286;59.274;17.974;2023-02-28T14:38:35;2.72;;;0.70;;
71475;SDS011;59286;59.274;17.974;2023-02-28T14:41:14;2.67;;;0.70;;
71475;SDS011;59286;59.274;17.974;2023-02-28T14:43:48;1.77;;;0.80;;
71475;SDS011;59286;59.274;17.974;2023-02-28T14:46:22;1.60;;;0.70;;
71475;SDS011;59286;59.274;17.974;2023-02-28T14:48:51;3.20;;;0.77;;
71475;SDS011;59286;59.274;17.974;2023-02-28T14:51:21;2.50;;;0.47;;
71475;SDS011;59286;59.274;17.974;2023-02-28T14:53:49;1.30;;;0.50;;
71475;SDS011;59286;59.274;17.974;2023-02-28T14:56:24;0.60;;;0.57;;
71475;SDS011;59286;59.274;17.974;2023-02-28T14:58:56;1.17;;;0.75;;
71475;SDS011;59286;59.274;17.974;2023-02-28T15:01:22;1.70;;;0.50;;
71475;SDS011;59286;59.274;17.974;2023-02-28T15:03:57;1.85;;;0.50;;
71475;SDS011;59286;59.274;17.974;2023-02-28T15:06:26;3.67;;;0.63;;
71475;SDS011;59286;59.274;17.974;2023-02-28T15:09:17;0.75;;;0.45;;
71475;SDS011;59286;59.274;17.974;2023-02-28T15:11:47;0.93;;;0.47;;
71475;SDS011;59286;59.274;17.974;2023-02-28T15:14:15;2.22;;;0.50;;
71475;SDS011;59286;59.274;17.974;2023-02-28T15:16:44;0.47;;;0.30;;
71475;SDS011;59286;59.274;17.974;2023-02-28T15:22:02;2.50;;;0.47;;
71475;SDS011;59286;59.274;17.974;2023-02-28T15:24:38;2.25;;;0.60;;
71475;SDS011;59286;59.274;17.974;2023-02-28T15:27:07;1.02;;;0.40;;
71475;SDS011;59286;59.274;17.974;2023-02-28T15:29:47;1.42;;;0.50;;
71475;SDS011;59286;59.274;17.974;2023-02-28T15:32:29;1.35;;;0.63;;
71475;SDS011;59286;59.274;17.974;2023-02-28T15:34:58;1.35;;;0.50;;
71475;SDS011;59286;59.274;17.974;2023-02-28T15:40:37;2.88;;;0.52;;
71475;SDS011;59286;59.274;17.974;2023-02-28T15:45:59;2.78;;;0.88;;
71475;SDS011;59286;59.274;17.974;2023-02-28T15:48:52;1.83;;;0.73;;
71475;SDS011;59286;59.274;17.974;2023-02-28T15:51:20;3.25;;;0.50;;
71475;SDS011;59286;59.274;17.974;2023-02-28T15:53:50;1.00;;;0.43;;
71475;SDS011;59286;59.274;17.974;2023-02-28T15:56:30;1.60;;;0.60;;
71475;SDS011;59286;59.274;17.974;2023-02-28T15:58:58;0.88;;;0.60;;
71475;SDS011;59286;59.274;17.974;2023-02-28T16:01:26;2.75;;;0.60;;
71475;SDS011;59286;59.274;17.974;2023-02-28T16:03:56;5.15;;;0.70;;
71475;SDS011;59286;59.274;17.974;2023-02-28T16:09:05;1.90;;;0.90;;
71475;SDS011;59286;59.274;17.974;2023-02-28T16:11:34;2.83;;;0.60;;
71475;SDS011;59286;59.274;17.974;2023-02-28T16:14:03;1.67;;;0.52;;
71475;SDS011;59286;59.274;17.974;2023-02-28T16:16:29;3.75;;;0.70;;
71475;SDS011;59286;59.274;17.974;2023-02-28T16:18:56;2.92;;;0.60;;
71475;SDS011;59286;59.274;17.974;2023-02-28T16:21:22;2.47;;;0.52;;
71475;SDS011;59286;59.274;17.974;2023-02-28T16:23:48;2.83;;;0.60;;
71475;SDS011;59286;59.274;17.974;2023-02-28T16:26:21;7.70;;;0.75;;
71475;SDS011;59286;59.274;17.974;2023-02-28T16:28:48;2.20;;;0.60;;
71475;SDS011;59286;59.274;17.974;2023-02-28T16:31:14;1.25;;;0.65;;
71475;SDS011;59286;59.274;17.974;2023-02-28T16:33:41;2.80;;;0.70;;
71475;SDS011;59286;59.274;17.974;2023-02-28T16:36:27;0.88;;;0.50;;
71475;SDS011;59286;59.274;17.974;2023-02-28T16:38:54;1.77;;;0.67;;
71475;SDS011;59286;59.274;17.974;2023-02-28T16:41:25;3.20;;;0.75;;
71475;SDS011;59286;59.274;17.974;2023-02-28T16:43:53;1.98;;;0.88;;
71475;SDS011;59286;59.274;17.974;2023-02-28T16:46:25;3.08;;;0.80;;
71475;SDS011;59286;59.274;17.974;2023-02-28T16:48:55;2.38;;;0.70;;
71475;SDS011;59286;59.274;17.974;2023-02-28T16:51:20;1.52;;;0.70;;
71475;SDS011;59286;59.274;17.974;2023-02-28T16:53:46;4.72;;;0.68;;
71475;SDS011;59286;59.274;17.974;2023-02-28T16:56:16;2.30;;;0.60;;
71475;SDS011;59286;59.274;17.974;2023-02-28T16:58:44;3.30;;;0.95;;
71475;SDS011;59286;59.274;17.974;2023-02-28T17:01:10;2.67;;;0.68;;
71475;SDS011;59286;59.274;17.974;2023-02-28T17:03:36;3.15;;;1.10;;
71475;SDS011;59286;59.274;17.974;2023-02-28T17:06:02;2.80;;;0.82;;
71475;SDS011;59286;59.274;17.974;2023-02-28T17:08:29;2.55;;;1.00;;
71475;SDS011;59286;59.274;17.974;2023-02-28T17:10:57;3.53;;;0.77;;
71475;SDS011;59286;59.274;17.974;2023-02-28T17:13:23;5.53;;;0.80;;
71475;SDS011;59286;59.274;17.974;2023-02-28T17:15:48;1.95;;;1.00;;
71475;SDS011;59286;59.274;17.974;2023-02-28T17:18:14;1.30;;;0.80;;
71475;SDS011;59286;59.274;17.974;2023-02-28T17:20:43;2.08;;;1.08;;
71475;SDS011;59286;59.274;17.974;2023-02-28T17:23:10;4.30;;;0.82;;
71475;SDS011;59286;59.274;17.974;2023-02-28T17:25:35;1.00;;;0.90;;
71475;SDS011;59286;59.274;17.974;2023-02-28T17:28:01;4.55;;;0.90;;
71475;SDS011;59286;59.274;17.974;2023-02-28T17:30:27;5.03;;;0.90;;